Time;durP1;ratioP1;P1;durP2;ratioP2;P2;SDS_P1;SDS_P2;PMS_P1;PMS_P2;Temp;Humidity;BMP_temperature;BMP_pressure;BME280_temperature;BME280_humidity;BME280_pressure;Samples;Min_cycle;Max_cycle;Signal;HPM_P1;HPM_P2
2022/03/02 00:00:41;;;;;;;10.18;4.13;;;;;;;2.97;100.00;102538.97;6124207;29;20139;-80
2022/03/02 00:03:42;;;;;;;9.65;4.03;;;;;;;2.98;100.00;102539.84;6124924;29;20055;-81
2022/03/02 00:06:44;;;;;;;11.85;4.95;;;;;;;2.98;100.00;102532.03;6125143;29;20048;-81
2022/03/02 00:09:46;;;;;;;10.30;4.47;;;;;;;2.94;100.00;102541.53;6124925;29;20055;-81
2022/03/02 00:12:48;;;;;;;13.48;4.78;;;;;;;2.92;100.00;102540.66;6124689;29;20574;-81
2022/03/02 00:15:49;;;;;;;11.15;4.63;;;;;;;2.89;100.00;102540.63;6124738;29;20530;-81
2022/03/02 00:18:51;;;;;;;8.98;3.97;;;;;;;2.93;100.00;102536.34;6124735;29;20059;-81
2022/03/02 00:21:53;;;;;;;11.63;4.55;;;;;;;2.94;100.00;102538.06;6124305;29;20055;-80
2022/03/02 00:24:55;;;;;;;11.60;5.25;;;;;;;2.98;100.00;102548.50;6123922;29;20418;-80
2022/03/02 00:27:57;;;;;;;9.52;3.67;;;;;;;2.96;100.00;102544.16;6124076;29;20056;-81
2022/03/02 00:30:58;;;;;;;12.32;4.97;;;;;;;2.93;100.00;102544.13;6123817;29;20059;-81
2022/03/02 00:33:59;;;;;;;11.60;4.13;;;;;;;2.93;100.00;102538.94;6124822;29;20063;-80
2022/03/02 00:37:01;;;;;;;11.80;5.28;;;;;;;2.90;100.00;102533.72;6124235;29;20534;-80
2022/03/02 00:40:04;;;;;;;8.10;3.78;;;;;;;2.89;100.00;102534.56;6123205;29;20047;-81
2022/03/02 00:43:07;;;;;;;10.85;3.83;;;;;;;2.87;100.00;102539.78;6133721;29;20048;-81
2022/03/02 00:46:08;;;;;;;9.05;3.92;;;;;;;2.85;100.00;102533.69;6137965;28;20040;-81
2022/03/02 00:49:10;;;;;;;10.90;4.32;;;;;;;2.85;100.00;102520.69;6146726;28;20062;-80
2022/03/02 00:52:14;;;;;;;12.48;4.45;;;;;;;2.88;100.00;102525.06;6138780;28;20055;-80
2022/03/02 00:55:17;;;;;;;10.32;4.32;;;;;;;2.84;100.00;102521.56;6131448;28;20437;-81
2022/03/02 00:58:18;;;;;;;7.53;3.83;;;;;;;2.79;100.00;102515.47;6124208;29;20062;-81
2022/03/02 01:01:19;;;;;;;11.50;4.20;;;;;;;2.71;100.00;102507.63;6118606;29;20059;-80
2022/03/02 01:04:21;;;;;;;7.65;3.95;;;;;;;2.73;100.00;102508.50;6136413;28;20051;-82
2022/03/02 01:07:22;;;;;;;12.93;4.53;;;;;;;2.75;100.00;102504.19;6123549;29;20056;-81
2022/03/02 01:10:25;;;;;;;10.05;4.97;;;;;;;2.74;100.00;102494.66;6131356;28;20081;-80
2022/03/02 01:13:26;;;;;;;11.00;4.90;;;;;;;2.72;100.00;102498.97;6147180;28;20051;-81
2022/03/02 01:16:29;;;;;;;14.52;4.22;;;;;;;2.72;100.00;102491.19;6147651;29;20513;-78
2022/03/02 01:19:30;;;;;;;9.27;3.95;;;;;;;2.72;100.00;102493.78;6146255;28;20058;-78
2022/03/02 01:22:32;;;;;;;9.57;3.80;;;;;;;2.69;100.00;102490.31;6137437;28;20387;-78
2022/03/02 01:25:35;;;;;;;9.65;4.70;;;;;;;2.67;100.00;102492.88;6140188;29;20062;-78
2022/03/02 01:28:36;;;;;;;12.48;4.72;;;;;;;2.72;100.00;102500.69;6146160;28;20058;-76
2022/03/02 01:31:37;;;;;;;11.70;5.00;;;;;;;2.73;100.00;102499.84;6145526;28;20051;-76
2022/03/02 01:34:39;;;;;;;9.73;4.30;;;;;;;2.74;100.00;102493.81;6146230;28;20051;-78
2022/03/02 01:37:40;;;;;;;12.10;5.40;;;;;;;2.74;100.00;102486.00;6146435;28;20434;-79
2022/03/02 01:40:43;;;;;;;14.32;5.65;;;;;;;2.76;100.00;102479.09;6145633;28;20055;-77
2022/03/02 01:43:44;;;;;;;12.52;4.35;;;;;;;2.78;100.00;102474.81;6146156;28;20054;-79
2022/03/02 01:46:46;;;;;;;9.10;4.82;;;;;;;2.78;100.00;102485.19;6141545;28;20047;-78
2022/03/02 01:49:48;;;;;;;12.73;5.38;;;;;;;2.78;100.00;102465.28;6141556;29;20062;-78
2022/03/02 01:52:49;;;;;;;9.50;5.25;;;;;;;2.75;100.00;102459.19;6145566;28;20054;-77
2022/03/02 01:55:52;;;;;;;16.70;5.22;;;;;;;2.72;100.00;102451.38;6146065;28;20062;-78
2022/03/02 01:58:53;;;;;;;12.65;4.50;;;;;;;2.71;100.00;102455.69;6146039;28;20054;-78
2022/03/02 02:01:55;;;;;;;14.38;6.38;;;;;;;2.73;100.00;102458.31;6148601;28;20051;-77
2022/03/02 02:04:57;;;;;;;9.77;4.50;;;;;;;2.76;100.00;102453.13;6150284;28;20055;-78
2022/03/02 02:07:58;;;;;;;10.30;4.88;;;;;;;2.78;100.00;102460.09;6150247;28;20062;-78
2022/03/02 02:11:01;;;;;;;9.73;4.78;;;;;;;2.78;100.00;102459.22;6149790;28;20055;-79
2022/03/02 02:14:03;;;;;;;10.00;4.50;;;;;;;2.71;100.00;102453.09;6149489;28;20062;-78
2022/03/02 02:17:05;;;;;;;8.63;5.18;;;;;;;2.70;100.00;102450.50;6150160;28;20605;-78
2022/03/02 02:20:07;;;;;;;12.98;4.60;;;;;;;2.69;100.00;102443.59;6141465;28;20051;-77
2022/03/02 02:23:10;;;;;;;9.52;4.72;;;;;;;2.70;100.00;102437.53;6134973;28;20044;-78
2022/03/02 02:26:11;;;;;;;10.57;4.68;;;;;;;2.70;100.00;102440.13;6148789;29;20055;-78
2022/03/02 02:29:13;;;;;;;10.02;4.07;;;;;;;2.64;100.00;102435.78;6150017;28;20059;-78
2022/03/02 02:32:15;;;;;;;14.25;4.47;;;;;;;2.65;100.00;102431.44;6148981;28;20416;-77
2022/03/02 02:35:16;;;;;;;13.35;3.70;;;;;;;2.68;100.00;102431.44;6138363;28;20048;-78
2022/03/02 02:38:21;;;;;;;10.27;4.65;;;;;;;2.62;100.00;102437.47;6149011;29;20074;-77
2022/03/02 02:41:23;;;;;;;9.98;4.20;;;;;;;2.56;100.00;102433.97;6137497;28;20048;-78
2022/03/02 02:44:24;;;;;;;14.68;6.18;;;;;;;2.57;100.00;102428.78;6140651;28;20054;-78
2022/03/02 02:47:25;;;;;;;13.80;4.63;;;;;;;2.62;100.00;102426.22;6133639;29;20067;-78
2022/03/02 02:50:28;;;;;;;9.10;4.75;;;;;;;2.61;100.00;102421.91;6148626;28;20051;-78
2022/03/02 02:53:31;;;;;;;11.60;5.05;;;;;;;2.57;100.00;102417.53;6127608;29;20052;-78
2022/03/02 02:56:33;;;;;;;9.68;4.60;;;;;;;2.58;100.00;102421.88;6149207;28;20063;-77
2022/03/02 02:59:34;;;;;;;12.90;4.80;;;;;;;2.59;100.00;102415.81;6148993;28;20051;-78
2022/03/02 03:02:35;;;;;;;7.40;3.90;;;;;;;2.59;100.00;102413.22;6148453;28;20055;-77
2022/03/02 03:05:37;;;;;;;9.55;4.50;;;;;;;2.57;100.00;102409.75;6138570;28;20755;-78
2022/03/02 03:08:40;;;;;;;11.10;4.55;;;;;;;2.57;100.00;102417.53;6149310;28;20061;-78
2022/03/02 03:11:41;;;;;;;13.45;4.82;;;;;;;2.56;100.00;102413.22;6147274;28;20051;-78
2022/03/02 03:14:43;;;;;;;10.95;3.75;;;;;;;2.52;100.00;102410.59;6149415;28;20048;-77
2022/03/02 03:17:45;;;;;;;9.55;5.60;;;;;;;2.51;100.00;102408.00;6149128;28;20058;-78
2022/03/02 03:20:47;;;;;;;10.43;4.70;;;;;;;2.48;100.00;102408.84;6148578;28;20399;-78
2022/03/02 03:23:49;;;;;;;10.15;4.55;;;;;;;2.44;100.00;102407.06;6148807;28;20048;-78
2022/03/02 03:26:51;;;;;;;10.85;4.18;;;;;;;2.44;100.00;102414.84;6149123;28;20132;-78
2022/03/02 03:29:52;;;;;;;9.40;4.93;;;;;;;2.36;100.00;102406.16;6148755;28;20074;-77
2022/03/02 03:32:54;;;;;;;11.27;4.95;;;;;;;2.37;100.00;102401.84;6140326;28;20502;-78
2022/03/02 03:35:55;;;;;;;9.73;4.70;;;;;;;2.39;100.00;102401.00;6128390;28;20055;-78
2022/03/02 03:38:58;;;;;;;8.25;4.38;;;;;;;2.36;100.00;102395.75;6124797;29;20070;-78
2022/03/02 03:41:59;;;;;;;11.75;3.92;;;;;;;2.39;100.00;102389.75;6124090;29;20052;-77
2022/03/02 03:45:01;;;;;;;12.18;4.18;;;;;;;2.37;100.00;102381.97;6124656;29;20511;-78
2022/03/02 03:48:02;;;;;;;10.80;4.45;;;;;;;2.38;100.00;102382.81;6124175;29;20055;-79
2022/03/02 03:51:03;;;;;;;10.18;4.88;;;;;;;2.39;100.00;102397.53;6123294;29;20059;-78
2022/03/02 03:54:06;;;;;;;10.57;4.55;;;;;;;2.42;100.00;102384.59;6123625;29;20419;-78
2022/03/02 03:57:08;;;;;;;8.73;4.03;;;;;;;2.40;100.00;102384.56;6124391;29;20060;-78
2022/03/02 04:00:13;;;;;;;9.73;4.28;;;;;;;2.36;100.00;102390.56;6124309;29;20062;-78
2022/03/02 04:03:14;;;;;;;12.90;3.90;;;;;;;2.33;100.00;102387.97;6124295;29;20055;-78
2022/03/02 04:06:16;;;;;;;7.95;3.78;;;;;;;2.28;100.00;102393.13;6124414;29;20047;-78
2022/03/02 04:09:19;;;;;;;13.30;5.32;;;;;;;2.21;100.00;102393.94;6124381;29;20051;-77
2022/03/02 04:12:20;;;;;;;7.90;4.40;;;;;;;2.20;100.00;102392.22;6123784;29;20055;-78
2022/03/02 04:15:22;;;;;;;9.55;3.90;;;;;;;2.17;100.00;102397.34;6124363;29;20051;-78
2022/03/02 04:18:24;;;;;;;10.43;4.32;;;;;;;2.14;100.00;102394.75;6123982;29;20073;-78
2022/03/02 04:21:26;;;;;;;8.20;4.05;;;;;;;2.12;100.00;102386.09;6123251;29;20052;-78
2022/03/02 04:24:29;;;;;;;14.05;5.88;;;;;;;2.12;100.00;102388.69;6122887;29;20051;-78
2022/03/02 04:27:30;;;;;;;12.88;4.10;;;;;;;2.12;100.00;102382.63;6122801;29;20059;-79
2022/03/02 04:30:32;;;;;;;8.40;4.35;;;;;;;2.08;100.00;102388.63;6122498;29;20063;-78
2022/03/02 04:33:33;;;;;;;10.38;3.95;;;;;;;1.99;100.00;102379.91;6122789;29;20052;-78
2022/03/02 04:36:35;;;;;;;9.55;5.03;;;;;;;1.96;100.00;102382.50;6123055;29;20055;-78
2022/03/02 04:39:37;;;;;;;9.48;4.68;;;;;;;1.95;100.00;102372.09;6122817;28;20074;-78
2022/03/02 04:42:39;;;;;;;7.68;4.50;;;;;;;1.92;100.00;102378.16;6127996;29;20056;-78
2022/03/02 04:45:41;;;;;;;8.98;4.78;;;;;;;1.89;100.00;102378.13;6134185;29;20070;-77
2022/03/02 04:48:42;;;;;;;13.63;5.05;;;;;;;1.87;100.00;102376.38;6138686;28;20058;-77
2022/03/02 04:51:43;;;;;;;13.20;5.25;;;;;;;1.84;100.00;102376.34;6117816;28;20443;-77
2022/03/02 04:58:07;;;;;;;9.65;4.60;;;;;;;1.83;100.00;102369.44;6106231;29;20531;-78
2022/03/02 05:01:09;;;;;;;12.85;4.80;;;;;;;1.81;100.00;102374.59;6123397;29;20056;-77
2022/03/02 05:04:10;;;;;;;10.50;4.55;;;;;;;1.81;100.00;102369.41;6123464;29;20400;-77
2022/03/02 05:07:11;;;;;;;9.30;4.25;;;;;;;1.81;100.00;102373.72;6130499;29;20059;-78
2022/03/02 05:10:16;;;;;;;11.18;4.68;;;;;;;1.76;100.00;102377.13;6139174;28;20051;-77
2022/03/02 05:13:18;;;;;;;11.85;5.32;;;;;;;1.74;100.00;102384.03;6147164;28;20063;-77
2022/03/02 05:16:21;;;;;;;17.13;5.05;;;;;;;1.72;100.00;102384.88;6111991;28;20059;-78
2022/03/02 05:19:22;;;;;;;12.07;5.60;;;;;;;1.69;100.00;102382.25;6113530;28;20079;-77
2022/03/02 05:22:24;;;;;;;15.68;4.93;;;;;;;1.68;100.00;102381.41;6108480;28;20063;-78
2022/03/02 05:25:26;;;;;;;11.95;5.30;;;;;;;1.66;100.00;102375.31;6108850;28;20052;-78
2022/03/02 05:28:28;;;;;;;10.35;4.10;;;;;;;1.64;100.00;102371.00;6123790;29;20055;-77
2022/03/02 05:31:29;;;;;;;8.75;3.95;;;;;;;1.62;100.00;102372.69;6122735;29;20131;-78
2022/03/02 05:34:30;;;;;;;12.77;4.88;;;;;;;1.61;100.00;102373.53;6124429;29;20044;-79
2022/03/02 05:37:33;;;;;;;10.88;4.85;;;;;;;1.55;100.00;102379.53;6123831;29;20531;-78
2022/03/02 05:40:36;;;;;;;16.17;5.32;;;;;;;1.50;100.00;102382.09;6130837;29;20055;-78
2022/03/02 05:43:37;;;;;;;13.70;5.43;;;;;;;1.48;100.00;102375.13;6127897;29;20127;-77
2022/03/02 05:46:39;;;;;;;10.57;4.82;;;;;;;1.45;100.00;102372.50;6136924;28;20062;-78
2022/03/02 05:49:40;;;;;;;13.30;5.47;;;;;;;1.42;100.00;102373.34;6131235;28;20529;-77
2022/03/02 05:52:42;;;;;;;14.95;5.55;;;;;;;1.43;100.00;102377.69;6138389;28;20048;-76
2022/03/02 05:55:44;;;;;;;10.50;4.65;;;;;;;1.39;100.00;102375.91;6139986;28;20047;-77
2022/03/02 05:58:46;;;;;;;10.65;6.53;;;;;;;1.37;100.00;102377.63;6136013;28;20058;-77
2022/03/02 06:01:49;;;;;;;9.50;4.60;;;;;;;1.33;100.00;102377.56;6127079;28;20055;-77
2022/03/02 06:04:50;;;;;;;9.32;4.40;;;;;;;1.31;100.00;102380.13;6120375;29;20049;-79
2022/03/02 06:07:51;;;;;;;13.57;5.82;;;;;;;1.31;100.00;102387.03;6123013;28;20055;-78
2022/03/02 06:10:55;;;;;;;10.80;4.65;;;;;;;1.31;100.00;102387.03;6121771;29;20054;-78
2022/03/02 06:13:56;;;;;;;12.27;5.13;;;;;;;1.30;100.00;102378.38;6129701;28;20411;-78
2022/03/02 06:16:58;;;;;;;9.13;4.70;;;;;;;1.30;100.00;102386.16;6118146;29;20051;-78
2022/03/02 06:20:00;;;;;;;16.13;5.13;;;;;;;1.31;100.00;102389.63;6125413;29;20242;-78
2022/03/02 06:23:02;;;;;;;10.23;4.20;;;;;;;1.33;100.00;102383.63;6134363;28;20051;-78
2022/03/02 06:26:05;;;;;;;7.13;3.72;;;;;;;1.28;100.00;102387.88;6135711;29;20054;-79
2022/03/02 06:29:07;;;;;;;9.32;4.57;;;;;;;1.30;100.00;102391.34;6146345;28;20052;-79
2022/03/02 06:32:08;;;;;;;8.52;4.53;;;;;;;1.32;100.00;102379.28;6145386;29;20062;-78
2022/03/02 06:35:10;;;;;;;10.40;5.25;;;;;;;1.32;100.00;102387.06;6138108;28;20051;-78
2022/03/02 06:38:11;;;;;;;11.15;5.05;;;;;;;1.29;100.00;102387.03;6144725;29;20050;-79
2022/03/02 06:41:25;;;;;;;10.23;4.75;;;;;;;1.29;100.00;102387.03;6139118;28;20058;-79
2022/03/02 06:44:32;;;;;;;12.20;4.55;;;;;;;1.34;100.00;102385.34;6122758;29;20079;-79
2022/03/02 06:47:41;;;;;;;14.13;4.93;;;;;;;1.37;100.00;102375.03;6132302;29;20051;-78
2022/03/02 06:50:45;;;;;;;10.05;4.72;;;;;;;1.38;100.00;102381.94;6143449;28;20059;-78
2022/03/02 06:53:46;;;;;;;17.15;5.10;;;;;;;1.39;100.00;102375.91;6137321;28;20054;-78
2022/03/02 06:56:53;;;;;;;13.32;7.05;;;;;;;1.37;100.00;102387.13;6149930;28;20055;-78
2022/03/02 06:59:59;;;;;;;12.90;5.75;;;;;;;1.35;100.00;102381.03;6143880;28;20502;-78
2022/03/02 07:03:04;;;;;;;13.43;5.57;;;;;;;1.38;100.00;102381.06;6139024;28;20414;-78
2022/03/02 07:06:06;;;;;;;10.23;4.15;;;;;;;1.36;100.00;102380.16;6141806;28;20051;-79
2022/03/02 07:09:08;;;;;;;11.25;4.93;;;;;;;1.31;100.00;102377.53;6144098;28;20055;-79
2022/03/02 07:12:11;;;;;;;12.88;4.90;;;;;;;1.31;100.00;102377.53;6139106;28;20058;-78
2022/03/02 07:15:14;;;;;;;10.57;4.25;;;;;;;1.36;100.00;102380.16;6149600;28;20055;-83
2022/03/02 07:18:15;;;;;;;10.18;4.78;;;;;;;1.30;100.00;102380.97;6150622;28;20044;-81
2022/03/02 07:21:29;;;;;;;10.50;4.85;;;;;;;1.29;100.00;102380.97;6180101;28;20503;-81
2022/03/02 07:24:36;;;;;;;14.27;4.47;;;;;;;1.31;100.00;102387.88;6162810;28;20051;-81
2022/03/02 07:27:40;;;;;;;9.73;5.63;;;;;;;1.36;100.00;102400.88;6137879;28;20063;-82
2022/03/02 07:30:43;;;;;;;12.00;5.25;;;;;;;1.41;100.00;102391.44;6250359;28;20049;-81
2022/03/02 07:33:46;;;;;;;14.15;5.90;;;;;;;1.40;100.00;102381.94;6250717;28;20102;-82
2022/03/02 07:36:47;;;;;;;12.50;4.95;;;;;;;1.45;100.00;102380.28;6250811;28;20069;-80
2022/03/02 07:39:51;;;;;;;9.93;4.93;;;;;;;1.51;100.00;102372.59;6250714;28;20057;-81
2022/03/02 07:42:55;;;;;;;12.90;4.53;;;;;;;1.55;100.00;102366.59;6196744;28;20052;-81
2022/03/02 07:46:12;;;;;;;10.43;4.38;;;;;;;1.57;100.00;102371.78;6128613;28;20051;-80
2022/03/02 07:49:13;;;;;;;7.70;4.75;;;;;;;1.58;100.00;102384.72;6102888;29;20095;-81
2022/03/02 07:52:25;;;;;;;12.63;5.55;;;;;;;1.62;100.00;102375.28;6108079;29;20177;-80
2022/03/02 07:55:28;;;;;;;16.35;6.63;;;;;;;1.67;100.00;102379.63;6107354;29;20050;-81
2022/03/02 07:58:31;;;;;;;12.98;5.30;;;;;;;1.71;100.00;102373.63;6125250;29;20054;-82
2022/03/02 08:01:35;;;;;;;8.88;4.55;;;;;;;1.75;100.00;102384.91;6105023;29;20056;-81
2022/03/02 08:04:37;;;;;;;14.65;5.50;;;;;;;1.77;100.00;102386.66;6105647;29;20054;-81
2022/03/02 08:07:39;;;;;;;18.70;6.55;;;;;;;1.77;100.00;102376.31;6133852;29;20055;-81
2022/03/02 08:10:42;;;;;;;14.48;6.07;;;;;;;1.74;100.00;102376.25;6132399;29;20051;-81
2022/03/02 08:13:45;;;;;;;8.05;4.28;;;;;;;1.74;100.00;102375.41;6132355;29;20113;-81
2022/03/02 08:16:47;;;;;;;15.50;5.22;;;;;;;1.71;100.00;102371.03;6134891;28;20444;-81
2022/03/02 08:19:48;;;;;;;15.02;4.60;;;;;;;1.66;100.00;102372.72;6161858;28;20054;-80
2022/03/02 08:22:52;;;;;;;8.30;4.13;;;;;;;1.61;100.00;102373.53;6227908;28;20052;-79
2022/03/02 08:25:54;;;;;;;12.18;4.50;;;;;;;1.55;100.00;102374.34;6143867;28;20052;-79
2022/03/02 08:29:03;;;;;;;17.23;5.68;;;;;;;1.50;100.00;102365.66;6125244;28;20063;-80
2022/03/02 08:32:06;;;;;;;8.68;3.80;;;;;;;1.52;100.00;102363.94;6124273;28;20051;-78
2022/03/02 08:35:08;;;;;;;13.35;5.80;;;;;;;1.56;100.00;102362.25;6135228;29;20055;-76
2022/03/02 08:38:11;;;;;;;13.32;4.72;;;;;;;1.62;100.00;102372.69;6131918;28;20517;-79
2022/03/02 08:41:12;;;;;;;15.63;5.75;;;;;;;1.65;100.00;102367.53;6122271;28;20415;-78
2022/03/02 08:44:15;;;;;;;8.23;4.50;;;;;;;1.77;100.00;102378.91;6133120;29;20056;-77
2022/03/02 08:47:16;;;;;;;12.80;4.90;;;;;;;1.90;100.00;102379.84;6133183;29;20058;-79
2022/03/02 08:50:18;;;;;;;9.23;4.60;;;;;;;2.00;100.00;102379.09;6116347;29;20048;-82
2022/03/02 08:53:20;;;;;;;9.38;5.00;;;;;;;2.13;100.00;102381.75;6140546;29;20078;-80
2022/03/02 08:56:22;;;;;;;11.88;4.53;;;;;;;2.22;100.00;102377.50;6137626;28;20047;-80
2022/03/02 08:59:25;;;;;;;8.98;4.13;;;;;;;2.32;100.00;102381.06;6209324;28;20635;-80
2022/03/02 09:02:29;;;;;;;8.90;4.15;;;;;;;2.46;100.00;102378.56;6208172;28;20049;-78
2022/03/02 09:05:31;;;;;;;13.63;4.18;;;;;;;2.63;100.00;102378.66;6249074;28;20053;-78
2022/03/02 09:08:33;;;;;;;12.40;4.28;;;;;;;2.83;96.49;102371.84;6249088;28;20060;-79
2022/03/02 09:11:35;;;;;;;12.38;5.03;;;;;;;3.01;93.09;102368.47;6245508;28;20489;-79
2022/03/02 09:14:39;;;;;;;10.25;4.75;;;;;;;3.22;89.30;102357.25;6138002;28;20514;-80
2022/03/02 09:17:40;;;;;;;12.05;4.32;;;;;;;3.35;88.19;102361.63;6148764;28;20514;-79
2022/03/02 09:20:43;;;;;;;14.80;4.40;;;;;;;3.47;86.93;102359.06;6147419;28;20054;-81
2022/03/02 09:23:46;;;;;;;12.60;4.47;;;;;;;3.54;86.53;102365.13;6142436;28;20058;-82
2022/03/02 09:26:48;;;;;;;13.85;4.55;;;;;;;3.64;81.43;102366.03;6123469;29;20054;-81
2022/03/02 09:29:53;;;;;;;7.88;3.85;;;;;;;3.75;80.08;102359.97;6123473;28;20052;-82
2022/03/02 09:32:56;;;;;;;10.43;3.40;;;;;;;3.91;73.86;102362.59;6122986;29;20102;-82
2022/03/02 09:36:00;;;;;;;10.65;3.95;;;;;;;4.01;73.78;102365.19;6123219;28;20044;-81
2022/03/02 09:39:02;;;;;;;10.00;4.30;;;;;;;4.11;73.17;102367.78;6123818;29;20059;-81
2022/03/02 09:42:09;;;;;;;8.98;4.15;;;;;;;4.17;70.64;102366.03;6122050;29;20059;-79
2022/03/02 09:45:12;;;;;;;7.82;3.90;;;;;;;4.30;69.84;102361.69;6122588;29;20044;-80
2022/03/02 09:48:25;;;;;;;7.03;4.00;;;;;;;4.40;68.65;102360.81;6123042;29;20094;-80
2022/03/02 09:51:29;;;;;;;8.27;3.95;;;;;;;4.54;66.76;102355.56;6124951;29;20047;-79
2022/03/02 09:54:36;;;;;;;7.32;3.13;;;;;;;4.73;66.18;102353.81;6099509;29;20063;-79
2022/03/02 09:57:43;;;;;;;7.70;3.97;;;;;;;4.84;66.42;102339.84;6115323;29;20052;-80
2022/03/02 10:00:48;;;;;;;6.88;3.92;;;;;;;4.94;64.87;102343.28;6122094;28;20071;-80
2022/03/02 10:03:51;;;;;;;12.52;4.22;;;;;;;5.04;63.79;102331.06;6123231;29;20201;-80
2022/03/02 10:07:26;;;;;;;10.82;3.17;;;;;;;5.25;63.33;102336.19;6122808;29;20051;-80
2022/03/02 10:10:22;;;;;;;9.00;3.45;;;;;;;5.25;63.21;102325.75;6122440;29;20052;-80
2022/03/02 10:13:25;;;;;;;10.25;4.00;;;;;;;5.35;64.00;102314.38;6122808;29;20052;-79
2022/03/02 10:16:29;;;;;;;7.68;3.35;;;;;;;5.52;63.22;102319.50;6122540;29;20495;-79
2022/03/02 10:19:34;;;;;;;10.65;4.65;;;;;;;5.62;61.01;102319.44;6098760;28;20139;-80
2022/03/02 10:23:10;;;;;;;10.52;4.60;;;;;;;5.59;62.90;102310.78;6101071;28;20063;-81
2022/03/02 10:26:16;;;;;;;10.65;5.05;;;;;;;5.58;63.34;102323.78;6103375;28;20614;-80
2022/03/02 10:29:30;;;;;;;11.32;5.13;;;;;;;5.66;61.03;102322.00;6103189;29;20063;-78
2022/03/02 10:32:36;;;;;;;10.52;4.40;;;;;;;5.70;63.46;102326.31;6102374;29;20052;-79
2022/03/02 10:35:43;;;;;;;12.75;4.07;;;;;;;5.77;63.25;102330.63;6102910;29;20159;-79
2022/03/02 10:38:55;;;;;;;15.93;4.88;;;;;;;5.89;63.50;102321.81;6103443;28;20056;-80
2022/03/02 10:42:05;;;;;;;9.93;4.43;;;;;;;5.95;65.85;102327.03;6127906;29;20051;-80
2022/03/02 10:45:10;;;;;;;8.13;4.18;;;;;;;6.05;63.52;102317.38;6136762;28;20054;-80
2022/03/02 10:48:21;;;;;;;10.93;3.80;;;;;;;6.21;59.73;102315.47;6140585;28;20051;-80
2022/03/02 10:51:25;;;;;;;7.45;3.58;;;;;;;6.28;61.29;102311.94;6143584;28;20098;-79
2022/03/02 10:54:28;;;;;;;9.98;4.00;;;;;;;6.49;59.69;102297.75;6134152;29;20067;-79
2022/03/02 10:57:33;;;;;;;9.27;3.92;;;;;;;6.35;60.31;102296.16;6149912;28;20058;-78
2022/03/02 11:00:34;;;;;;;12.63;4.13;;;;;;;6.43;59.87;102290.88;6144436;28;20047;-78
2022/03/02 11:03:38;;;;;;;9.80;4.07;;;;;;;6.50;59.37;102296.91;6131673;28;20043;-78
2022/03/02 11:06:40;;;;;;;15.90;4.30;;;;;;;6.66;60.05;102294.97;6125756;29;20055;-79
2022/03/02 11:09:43;;;;;;;9.65;3.85;;;;;;;6.84;60.97;102286.88;6133620;29;20847;-79
2022/03/02 11:12:46;;;;;;;10.73;3.78;;;;;;;6.96;59.14;102286.72;6144382;29;20544;-80
2022/03/02 11:15:49;;;;;;;10.60;3.95;;;;;;;7.03;59.04;102282.28;6149047;28;20483;-79
2022/03/02 11:18:53;;;;;;;11.85;5.07;;;;;;;7.12;57.94;102284.75;6149473;28;20051;-79
2022/03/02 11:21:57;;;;;;;8.50;4.32;;;;;;;7.26;57.98;102285.41;6148294;28;20051;-80
2022/03/02 11:25:00;;;;;;;11.63;4.43;;;;;;;7.44;54.98;102275.56;6134040;28;20051;-79
2022/03/02 11:28:06;;;;;;;10.32;3.67;;;;;;;7.59;56.49;102267.50;6125423;29;20052;-78
2022/03/02 11:31:10;;;;;;;9.73;4.32;;;;;;;7.85;56.91;102265.25;6125277;29;20079;-79
2022/03/02 11:34:15;;;;;;;11.27;4.63;;;;;;;8.08;57.96;102270.13;6124030;29;20415;-80
2022/03/02 11:37:16;;;;;;;11.27;4.88;;;;;;;8.39;56.49;102259.06;6125412;29;20048;-80
2022/03/02 11:40:18;;;;;;;11.45;4.95;;;;;;;8.53;53.01;102257.03;6124565;29;20051;-78
2022/03/02 11:43:22;;;;;;;11.00;5.13;;;;;;;8.69;54.19;102249.72;6125031;29;20048;-79
2022/03/02 11:46:24;;;;;;;16.52;5.32;;;;;;;8.82;51.45;102250.31;6125016;29;20044;-80
2022/03/02 11:49:40;;;;;;;10.75;4.13;;;;;;;9.00;50.68;102242.03;6125199;29;20062;-80
2022/03/02 11:52:45;;;;;;;13.23;4.57;;;;;;;9.26;49.60;102243.19;6108589;29;20052;-80
2022/03/02 11:55:47;;;;;;;10.80;4.28;;;;;;;9.55;49.63;102238.09;6100997;29;20055;-80
2022/03/02 11:58:57;;;;;;;11.57;4.70;;;;;;;9.72;48.14;102242.03;6099371;29;20055;-79
2022/03/02 12:01:58;;;;;;;9.70;4.15;;;;;;;10.03;46.99;102242.97;6095384;29;20060;-80
2022/03/02 12:05:03;;;;;;;14.80;4.35;;;;;;;10.17;46.39;102229.44;6095851;29;20138;-80
2022/03/02 12:08:07;;;;;;;9.85;4.53;;;;;;;10.17;44.19;102232.06;6097449;29;20095;-80
2022/03/02 12:11:14;;;;;;;15.15;4.53;;;;;;;10.31;42.76;102227.34;6095774;29;20167;-80
2022/03/02 12:14:16;;;;;;;9.48;3.85;;;;;;;10.39;42.65;102222.72;6097731;29;20901;-81
2022/03/02 12:17:20;;;;;;;12.45;4.82;;;;;;;10.76;42.90;102224.25;6100778;29;20798;-79
2022/03/02 12:20:24;;;;;;;9.93;4.45;;;;;;;10.73;43.47;102227.00;6105918;29;20052;-78
2022/03/02 12:23:27;;;;;;;11.60;4.68;;;;;;;10.90;43.53;102218.56;6106670;28;20047;-80
2022/03/02 12:26:30;;;;;;;9.43;3.88;;;;;;;10.85;41.85;102223.97;6148408;28;20043;-79
2022/03/02 12:29:32;;;;;;;9.10;4.15;;;;;;;10.85;42.59;102215.22;6149243;28;20055;-80
2022/03/02 12:32:35;;;;;;;11.02;4.20;;;;;;;10.84;38.91;102206.47;6147494;28;20098;-80
2022/03/02 12:35:40;;;;;;;8.02;3.58;;;;;;;10.80;40.72;102218.00;6148737;28;20051;-80
2022/03/02 12:38:41;;;;;;;12.45;4.32;;;;;;;10.76;41.99;102212.88;6129823;29;20056;-78
2022/03/02 12:41:43;;;;;;;7.32;3.65;;;;;;;10.82;40.33;102203.03;6123760;29;20411;-78
2022/03/02 12:44:46;;;;;;;10.77;4.50;;;;;;;10.98;37.52;102202.56;6131963;29;20067;-80
2022/03/02 12:47:49;;;;;;;8.27;4.22;;;;;;;10.91;40.32;102194.00;6133997;29;20625;-80
2022/03/02 12:50:52;;;;;;;9.57;4.53;;;;;;;11.22;38.32;102193.00;6138228;28;20063;-80
2022/03/02 12:53:54;;;;;;;10.48;4.07;;;;;;;11.13;39.80;102187.16;6125137;29;20063;-78
2022/03/02 12:56:55;;;;;;;12.98;4.55;;;;;;;11.14;41.04;102186.22;6132742;29;20135;-78
2022/03/02 12:59:58;;;;;;;8.60;4.32;;;;;;;11.11;40.78;102188.09;6136595;29;20051;-78
2022/03/02 13:02:59;;;;;;;11.68;4.43;;;;;;;11.19;41.63;102180.81;6137146;28;20431;-78
2022/03/02 13:06:06;;;;;;;11.75;4.68;;;;;;;11.35;40.86;102170.63;6143262;28;20450;-78
2022/03/02 13:09:14;;;;;;;7.43;4.18;;;;;;;11.38;40.68;102176.66;6132054;29;20079;-78
2022/03/02 13:12:26;;;;;;;10.55;4.28;;;;;;;11.55;40.43;102176.09;6123625;29;20047;-79
2022/03/02 13:15:37;;;;;;;11.40;4.43;;;;;;;11.80;38.90;102173.44;6124822;29;20058;-77
2022/03/02 13:18:39;;;;;;;9.38;4.50;;;;;;;11.72;38.97;102170.25;6124377;29;20055;-80
2022/03/02 13:21:42;;;;;;;10.57;4.57;;;;;;;11.45;38.15;102169.44;6134404;29;20055;-80
2022/03/02 13:24:46;;;;;;;8.70;3.67;;;;;;;11.26;40.04;102176.19;6134237;28;20052;-80
2022/03/02 13:28:09;;;;;;;10.85;3.83;;;;;;;11.45;38.37;102169.44;6123409;29;20051;-78
2022/03/02 13:31:14;;;;;;;8.13;3.45;;;;;;;11.83;38.89;102165.47;6127113;29;20052;-78
2022/03/02 13:34:16;;;;;;;8.75;3.25;;;;;;;11.65;36.23;102169.59;6124691;29;20054;-80
2022/03/02 13:37:19;;;;;;;7.32;3.67;;;;;;;11.77;36.68;102156.91;6125001;29;20052;-79
2022/03/02 13:40:45;;;;;;;8.82;4.00;;;;;;;11.88;35.27;102158.25;6123368;29;20059;-81
2022/03/02 13:43:46;;;;;;;7.10;3.50;;;;;;;11.98;35.44;102147.38;6123234;29;20428;-80
2022/03/02 13:47:15;;;;;;;8.30;4.07;;;;;;;12.13;37.25;102150.34;6126228;29;20040;-79
2022/03/02 13:50:18;;;;;;;8.95;4.60;;;;;;;12.29;35.83;102147.13;6139362;29;20055;-80
2022/03/02 13:53:32;;;;;;;7.43;3.35;;;;;;;12.16;33.79;102147.56;6148352;28;20051;-80
2022/03/02 13:56:37;;;;;;;7.35;3.58;;;;;;;12.78;34.04;102138.16;6135093;28;20427;-78
2022/03/02 13:59:39;;;;;;;6.60;3.22;;;;;;;12.34;35.66;102137.25;6152032;28;20051;-78
2022/03/02 14:02:41;;;;;;;7.63;3.55;;;;;;;12.50;35.34;102140.16;6150080;28;20054;-78
2022/03/02 14:05:46;;;;;;;5.28;3.20;;;;;;;12.15;37.03;102137.94;6151854;28;20051;-80
2022/03/02 14:08:51;;;;;;;8.35;3.42;;;;;;;12.40;36.72;102137.03;6151399;28;20062;-79
2022/03/02 14:11:54;;;;;;;12.60;4.32;;;;;;;12.06;35.21;102132.16;6151880;28;20051;-79